Brookfield, Connecticut
Current Conditions -  °F | °C
As of 10:53 AM on Thursday 27 Nov 2014 (Local Time) from KDXR Reporting Station
Broken Clouds Broken Clouds  
Wind Chill: 28°   Ceiling: 7500
Heat Index: 34°   Visibility: 10mi
Dew Point: 25°   Wind: 7mph
Humidity: 70%   Direction: 340°NNW
Pressure: 29.99"   Gusts: NA
Location:  41.48°N, 73.41°W
Report Text: KDXR 271553Z 34006KT 10SM FEW043 SCT060 BKN075 01/M04 A2999 RMK AO2 SLP158 T00111039
Loading
Personal Weather Stations






























Interactive Weather Map New forecast layout! Learn more

10-Day Weather Forecast

Advertisements
Track Severe Weather on mobile